Time;durP1;ratioP1;P1;durP2;ratioP2;P2;SDS_P1;SDS_P2;PMS_P1;PMS_P2;Temp;Humidity;BMP_temperature;BMP_pressure;BME280_temperature;BME280_humidity;BME280_pressure;Samples;Min_cycle;Max_cycle;Signal;HPM_P1;HPM_P2
2022/10/08 00:00:53;;;;;;;;;;;18.20;92.00;;;;;;5076181;28;19916;-90
2022/10/08 00:03:20;;;;;;;;;;;18.20;92.00;;;;;;5075522;28;19920;-90
2022/10/08 00:06:11;;;;;;;;;;;18.20;92.10;;;;;;5076338;28;19908;-91
2022/10/08 00:08:41;;;;;;;;;;;18.20;92.00;;;;;;5075794;28;20274;-90
2022/10/08 00:11:08;;;;;;;;;;;18.20;92.00;;;;;;5076699;28;19908;-90
2022/10/08 00:13:40;;;;;;;;;;;18.20;92.00;;;;;;5076156;28;19912;-91
2022/10/08 00:16:11;;;;;;;;;;;18.20;92.00;;;;;;5075959;28;19908;-91
2022/10/08 00:18:40;;;;;;;;;;;18.20;92.00;;;;;;5076287;28;19912;-91
2022/10/08 00:21:16;;;;;;;;;;;18.20;92.00;;;;;;5076019;28;20255;-89
2022/10/08 00:23:48;;;;;;;;;;;18.20;92.00;;;;;;5075076;28;20202;-91
2022/10/08 00:26:18;;;;;;;;;;;18.20;92.00;;;;;;5075320;28;19980;-90
2022/10/08 00:28:51;;;;;;;;;;;18.20;92.00;;;;;;5074009;28;19957;-90
2022/10/08 00:31:21;;;;;;;;;;;18.20;92.00;;;;;;5072037;28;20147;-90
2022/10/08 00:33:55;;;;;;;;;;;18.20;92.00;;;;;;5074589;28;20270;-90
2022/10/08 00:36:41;;;;;;;;;;;18.20;92.00;;;;;;5074401;28;19909;-90
2022/10/08 00:39:08;;;;;;;;;;;18.20;92.00;;;;;;5074837;28;20068;-90
2022/10/08 00:41:37;;;;;;;;;;;18.20;92.00;;;;;;5077542;28;19908;-90
2022/10/08 00:44:39;;;;;;;;;;;18.20;92.00;;;;;;5076675;28;19974;-91
2022/10/08 00:47:07;;;;;;;;;;;18.20;92.00;;;;;;5015062;28;19999;-91
2022/10/08 00:49:32;;;;;;;;;;;18.20;92.00;;;;;;5063716;28;19908;-92
2022/10/08 00:52:01;;;;;;;;;;;18.20;92.00;;;;;;5075802;28;19919;-91
2022/10/08 00:54:28;;;;;;;;;;;18.20;92.00;;;;;;5076575;28;19908;-91
2022/10/08 00:56:54;;;;;;;;;;;18.20;92.00;;;;;;5078594;28;19912;-91
2022/10/08 00:59:20;;;;;;;;;;;18.20;92.10;;;;;;5097052;28;19916;-92
2022/10/08 01:01:46;;;;;;;;;;;18.20;92.10;;;;;;5080113;28;19908;-91
2022/10/08 01:04:12;;;;;;;;;;;18.20;92.10;;;;;;5079743;28;19927;-91
2022/10/08 01:06:45;;;;;;;;;;;18.20;92.10;;;;;;5080198;28;19959;-91
2022/10/08 01:09:14;;;;;;;;;;;18.20;92.10;;;;;;5095029;28;19978;-91
2022/10/08 01:11:59;;;;;;;;;;;18.20;92.10;;;;;;5077150;28;19910;-91
2022/10/08 01:14:33;;;;;;;;;;;18.20;92.10;;;;;;5095239;28;19908;-89
2022/10/08 01:17:14;;;;;;;;;;;18.10;92.00;;;;;;5077825;28;20307;-90
2022/10/08 01:19:54;;;;;;;;;;;18.20;92.10;;;;;;5079113;28;19908;-91
2022/10/08 01:22:29;;;;;;;;;;;18.10;92.10;;;;;;5096294;28;19908;-90
2022/10/08 01:27:53;;;;;;;;;;;18.10;92.10;;;;;;5096592;28;19991;-91
2022/10/08 01:30:18;;;;;;;;;;;18.10;92.10;;;;;;5079604;28;19958;-91
2022/10/08 01:32:47;;;;;;;;;;;18.10;92.10;;;;;;5079010;28;19947;-90
2022/10/08 01:35:36;;;;;;;;;;;18.10;92.10;;;;;;5078985;28;19916;-91
2022/10/08 01:38:03;;;;;;;;;;;18.10;92.10;;;;;;5070095;28;19915;-91
2022/10/08 01:40:32;;;;;;;;;;;18.10;92.10;;;;;;5094771;28;19986;-91
2022/10/08 01:42:58;;;;;;;;;;;18.10;92.10;;;;;;5076369;28;19912;-91
2022/10/08 01:45:32;;;;;;;;;;;18.10;92.10;;;;;;5076747;28;20075;-90
2022/10/08 01:48:00;;;;;;;;;;;18.10;92.10;;;;;;5094322;28;19908;-91
2022/10/08 01:50:47;;;;;;;;;;;18.10;92.10;;;;;;5076949;28;20297;-92
2022/10/08 01:53:15;;;;;;;;;;;18.10;92.10;;;;;;5093780;28;19912;-92
2022/10/08 01:55:44;;;;;;;;;;;18.10;92.10;;;;;;5077403;28;19908;-91
2022/10/08 01:58:26;;;;;;;;;;;18.10;92.10;;;;;;5077343;28;19916;-91
2022/10/08 02:00:52;;;;;;;;;;;18.10;92.10;;;;;;5077992;28;19935;-91
2022/10/08 02:03:18;;;;;;;;;;;18.10;92.10;;;;;;5077867;28;19987;-91
2022/10/08 02:05:47;;;;;;;;;;;18.10;92.10;;;;;;5076793;28;19948;-92
2022/10/08 02:08:13;;;;;;;;;;;18.10;92.10;;;;;;5077571;28;19919;-92
2022/10/08 02:10:39;;;;;;;;;;;18.10;92.10;;;;;;5078512;28;19919;-91
2022/10/08 02:13:05;;;;;;;;;;;18.10;92.10;;;;;;5077890;28;19912;-90
2022/10/08 02:15:54;;;;;;;;;;;18.10;92.10;;;;;;5078812;28;19908;-90
2022/10/08 02:18:32;;;;;;;;;;;18.10;92.10;;;;;;5069774;28;19915;-91
2022/10/08 02:21:03;;;;;;;;;;;18.10;92.10;;;;;;5078796;28;20024;-92
2022/10/08 02:23:38;;;;;;;;;;;18.10;92.10;;;;;;5078941;28;19923;-90
2022/10/08 02:26:08;;;;;;;;;;;18.10;92.10;;;;;;5078306;28;19908;-89
2022/10/08 02:28:44;;;;;;;;;;;18.10;92.10;;;;;;5078254;28;19907;-90
2022/10/08 02:31:28;;;;;;;;;;;18.10;92.10;;;;;;5076577;28;20007;-90
2022/10/08 02:34:04;;;;;;;;;;;18.10;92.10;;;;;;5077542;28;19916;-90
2022/10/08 02:36:35;;;;;;;;;;;18.10;92.10;;;;;;5077856;28;19916;-90
2022/10/08 02:39:02;;;;;;;;;;;18.10;92.10;;;;;;5078494;28;19908;-90
2022/10/08 02:41:48;;;;;;;;;;;18.10;92.10;;;;;;5078864;28;19908;-90
2022/10/08 02:44:16;;;;;;;;;;;18.10;92.10;;;;;;5067270;28;19923;-91
2022/10/08 02:46:45;;;;;;;;;;;18.10;92.10;;;;;;5077980;28;20289;-90
2022/10/08 02:49:16;;;;;;;;;;;18.10;92.10;;;;;;5077293;28;19920;-90
2022/10/08 02:51:48;;;;;;;;;;;18.10;92.10;;;;;;5076529;28;19920;-89
2022/10/08 02:54:15;;;;;;;;;;;18.10;92.10;;;;;;5077249;28;20357;-90
2022/10/08 02:56:46;;;;;;;;;;;18.10;92.10;;;;;;5078033;28;19942;-90
2022/10/08 02:59:16;;;;;;;;;;;18.10;92.10;;;;;;5095455;28;19908;-92
2022/10/08 03:01:45;;;;;;;;;;;18.10;92.10;;;;;;5079692;28;19908;-93
2022/10/08 03:04:26;;;;;;;;;;;18.10;92.10;;;;;;5078578;28;19916;-92
2022/10/08 03:06:55;;;;;;;;;;;18.10;92.10;;;;;;5096310;28;20256;-92
2022/10/08 03:09:21;;;;;;;;;;;18.10;92.10;;;;;;5079334;28;19908;-92
2022/10/08 03:11:47;;;;;;;;;;;18.10;92.10;;;;;;5079148;28;19912;-93
2022/10/08 03:14:17;;;;;;;;;;;18.10;92.10;;;;;;5078714;28;20274;-92
2022/10/08 03:16:44;;;;;;;;;;;18.10;92.10;;;;;;5077679;28;19991;-93
2022/10/08 03:19:10;;;;;;;;;;;18.10;92.10;;;;;;5078304;28;20010;-93
2022/10/08 03:21:38;;;;;;;;;;;18.10;92.00;;;;;;5077131;28;19908;-92
2022/10/08 03:24:04;;;;;;;;;;;18.10;92.10;;;;;;5076458;28;19920;-92
2022/10/08 03:26:30;;;;;;;;;;;18.10;92.00;;;;;;5092388;28;20155;-90
2022/10/08 03:28:59;;;;;;;;;;;18.10;92.00;;;;;;5075436;28;19908;-90
2022/10/08 03:31:24;;;;;;;;;;;18.10;92.00;;;;;;5074953;28;19908;-89
2022/10/08 03:33:51;;;;;;;;;;;18.00;92.00;;;;;;5074081;28;19916;-90
2022/10/08 03:36:18;;;;;;;;;;;18.10;92.00;;;;;;5073692;28;19909;-89
2022/10/08 03:38:43;;;;;;;;;;;18.10;92.00;;;;;;5074655;28;19908;-89
2022/10/08 03:41:09;;;;;;;;;;;18.10;92.00;;;;;;5091622;28;19908;-91
2022/10/08 03:43:41;;;;;;;;;;;18.10;92.00;;;;;;5074849;28;19912;-89
2022/10/08 03:46:11;;;;;;;;;;;18.10;92.00;;;;;;5074410;28;20239;-89
2022/10/08 03:48:39;;;;;;;;;;;18.10;92.00;;;;;;5075477;28;20012;-89
2022/10/08 03:51:07;;;;;;;;;;;18.10;92.00;;;;;;5075241;28;20394;-91
2022/10/08 03:53:37;;;;;;;;;;;18.10;92.00;;;;;;5076217;28;19939;-90
2022/10/08 03:56:04;;;;;;;;;;;18.10;92.00;;;;;;5075399;28;20310;-90
2022/10/08 03:58:30;;;;;;;;;;;18.10;92.00;;;;;;5075383;28;20468;-91
2022/10/08 04:01:02;;;;;;;;;;;18.10;92.00;;;;;;5074398;28;19916;-90
2022/10/08 04:03:30;;;;;;;;;;;18.10;92.00;;;;;;5075436;28;19912;-91
2022/10/08 04:05:55;;;;;;;;;;;18.10;92.00;;;;;;5075643;28;19919;-90
2022/10/08 04:08:21;;;;;;;;;;;18.10;92.00;;;;;;5092634;28;19908;-90
2022/10/08 04:10:47;;;;;;;;;;;18.10;92.00;;;;;;5075761;28;20113;-91
2022/10/08 04:13:16;;;;;;;;;;;18.10;92.00;;;;;;5076328;28;19919;-92
2022/10/08 04:15:43;;;;;;;;;;;18.10;92.00;;;;;;5080618;28;19908;-91
2022/10/08 04:18:12;;;;;;;;;;;18.10;92.00;;;;;;5080622;28;19959;-91
2022/10/08 04:20:39;;;;;;;;;;;18.10;92.00;;;;;;5078211;28;19908;-90
2022/10/08 04:23:05;;;;;;;;;;;18.10;92.10;;;;;;5079353;28;19912;-91
2022/10/08 04:25:31;;;;;;;;;;;18.10;92.10;;;;;;5079316;28;19908;-92
2022/10/08 04:27:59;;;;;;;;;;;18.10;92.10;;;;;;5077213;28;19908;-92
2022/10/08 04:30:25;;;;;;;;;;;18.10;92.00;;;;;;5079307;28;20229;-93
2022/10/08 04:32:51;;;;;;;;;;;18.10;92.10;;;;;;5078849;28;20015;-91
2022/10/08 04:35:17;;;;;;;;;;;18.10;92.10;;;;;;5078916;28;20074;-92
2022/10/08 04:37:42;;;;;;;;;;;18.10;92.10;;;;;;5079195;28;19912;-92
2022/10/08 04:40:11;;;;;;;;;;;18.10;92.10;;;;;;5079506;28;19945;-92
2022/10/08 04:42:37;;;;;;;;;;;18.10;92.10;;;;;;5077980;28;20152;-91
2022/10/08 04:45:05;;;;;;;;;;;18.10;92.10;;;;;;5077999;28;19919;-92
2022/10/08 04:47:34;;;;;;;;;;;18.10;92.10;;;;;;5076620;28;20346;-92
2022/10/08 04:50:03;;;;;;;;;;;18.10;92.10;;;;;;5076209;28;19912;-92
2022/10/08 04:52:32;;;;;;;;;;;18.10;92.20;;;;;;5075326;28;19931;-92
2022/10/08 04:54:58;;;;;;;;;;;18.10;92.20;;;;;;5093771;28;19908;-92
2022/10/08 04:57:24;;;;;;;;;;;18.10;92.20;;;;;;5092177;28;19919;-91
2022/10/08 04:59:52;;;;;;;;;;;18.10;92.20;;;;;;5074300;28;19923;-92
2022/10/08 05:02:21;;;;;;;;;;;18.10;92.20;;;;;;5074283;28;20183;-91
2022/10/08 05:04:46;;;;;;;;;;;18.00;92.20;;;;;;5074797;28;19908;-91
2022/10/08 05:07:12;;;;;;;;;;;18.00;92.20;;;;;;5076651;28;20044;-91
2022/10/08 05:09:37;;;;;;;;;;;18.10;92.30;;;;;;5077147;28;19908;-92
2022/10/08 05:12:06;;;;;;;;;;;18.00;92.20;;;;;;5077872;28;20190;-92
2022/10/08 05:14:33;;;;;;;;;;;18.00;92.20;;;;;;5079079;28;19912;-91
2022/10/08 05:16:58;;;;;;;;;;;18.00;92.20;;;;;;5078886;28;20022;-91
2022/10/08 05:19:24;;;;;;;;;;;18.00;92.30;;;;;;5079716;28;19998;-91
2022/10/08 05:21:49;;;;;;;;;;;18.00;92.30;;;;;;5078079;28;19919;-91
2022/10/08 05:24:15;;;;;;;;;;;18.00;92.30;;;;;;5079015;28;20188;-91
2022/10/08 05:26:41;;;;;;;;;;;18.00;92.30;;;;;;5078591;28;19950;-91
2022/10/08 05:29:06;;;;;;;;;;;18.00;92.30;;;;;;5080270;28;19988;-92
2022/10/08 05:31:38;;;;;;;;;;;18.00;92.30;;;;;;5080046;28;19984;-92
2022/10/08 05:34:06;;;;;;;;;;;18.00;92.30;;;;;;5079404;28;20190;-92
2022/10/08 05:36:33;;;;;;;;;;;18.00;92.30;;;;;;5078477;28;20306;-92
2022/10/08 05:39:03;;;;;;;;;;;18.00;92.40;;;;;;5076409;28;19969;-91
2022/10/08 05:41:31;;;;;;;;;;;18.00;92.40;;;;;;5076660;28;19908;-91
2022/10/08 05:43:57;;;;;;;;;;;18.00;92.40;;;;;;5076903;28;19912;-92
2022/10/08 05:46:24;;;;;;;;;;;18.00;92.40;;;;;;5081156;28;19916;-93
2022/10/08 05:48:56;;;;;;;;;;;18.00;92.40;;;;;;5081138;28;19916;-92
2022/10/08 05:51:22;;;;;;;;;;;18.00;92.40;;;;;;5078331;28;19908;-92
2022/10/08 05:53:49;;;;;;;;;;;18.00;92.40;;;;;;5078506;28;19969;-92
2022/10/08 05:56:19;;;;;;;;;;;18.00;92.40;;;;;;5076654;28;19935;-92
2022/10/08 05:58:47;;;;;;;;;;;18.00;92.40;;;;;;5076759;28;19908;-92
2022/10/08 06:01:31;;;;;;;;;;;18.00;92.50;;;;;;5077954;28;19908;-91
2022/10/08 06:03:58;;;;;;;;;;;18.00;92.60;;;;;;5094799;28;19912;-91
2022/10/08 06:06:25;;;;;;;;;;;18.00;92.50;;;;;;5078160;28;19908;-91
2022/10/08 06:08:55;;;;;;;;;;;18.00;92.50;;;;;;5077346;28;19908;-91
2022/10/08 06:11:21;;;;;;;;;;;18.00;92.50;;;;;;5094265;28;20193;-91
2022/10/08 06:13:46;;;;;;;;;;;18.00;92.50;;;;;;5093851;28;19914;-91
2022/10/08 06:16:12;;;;;;;;;;;18.00;92.50;;;;;;5076565;28;20011;-91
2022/10/08 06:18:40;;;;;;;;;;;18.00;92.50;;;;;;5092276;28;19908;-91
2022/10/08 06:21:10;;;;;;;;;;;18.00;92.50;;;;;;5075009;28;19908;-91
2022/10/08 06:23:43;;;;;;;;;;;18.00;92.50;;;;;;5093007;28;20326;-91
2022/10/08 06:26:09;;;;;;;;;;;18.00;92.50;;;;;;5075255;28;19912;-91
2022/10/08 06:28:35;;;;;;;;;;;18.00;92.50;;;;;;5076198;28;19919;-92
2022/10/08 06:31:02;;;;;;;;;;;18.00;92.50;;;;;;5076444;28;20139;-92
2022/10/08 06:33:31;;;;;;;;;;;18.00;92.50;;;;;;5076826;28;19912;-91
2022/10/08 06:36:01;;;;;;;;;;;18.00;92.50;;;;;;5076341;28;19915;-91
2022/10/08 06:38:29;;;;;;;;;;;18.00;92.50;;;;;;5075377;28;19908;-91
2022/10/08 06:41:00;;;;;;;;;;;18.00;92.50;;;;;;5073593;28;20183;-92
2022/10/08 06:43:26;;;;;;;;;;;18.00;92.50;;;;;;5074100;28;19994;-91
2022/10/08 06:45:52;;;;;;;;;;;18.00;92.50;;;;;;5074769;28;20290;-91
2022/10/08 06:48:19;;;;;;;;;;;18.00;92.50;;;;;;5072888;28;19951;-91
2022/10/08 06:50:47;;;;;;;;;;;18.00;92.50;;;;;;5074263;28;19908;-91
2022/10/08 06:53:13;;;;;;;;;;;18.00;92.50;;;;;;5092148;28;20179;-92
2022/10/08 06:55:38;;;;;;;;;;;18.00;92.50;;;;;;5091817;28;20380;-91
2022/10/08 06:58:07;;;;;;;;;;;18.00;92.60;;;;;;5073043;28;20244;-91
2022/10/08 07:00:35;;;;;;;;;;;18.00;92.60;;;;;;5072534;28;19908;-91
2022/10/08 07:03:01;;;;;;;;;;;18.00;92.50;;;;;;5073024;28;19912;-91
2022/10/08 07:05:27;;;;;;;;;;;18.10;92.60;;;;;;5073885;28;19908;-92
2022/10/08 07:07:52;;;;;;;;;;;18.10;92.50;;;;;;5073975;28;19915;-92
2022/10/08 07:10:18;;;;;;;;;;;18.00;92.50;;;;;;5074036;28;19962;-92
2022/10/08 07:12:44;;;;;;;;;;;18.10;92.60;;;;;;5073021;28;20225;-91
2022/10/08 07:15:12;;;;;;;;;;;18.00;92.50;;;;;;5091162;28;19908;-91
2022/10/08 07:17:38;;;;;;;;;;;18.00;92.50;;;;;;5074889;28;19908;-91
2022/10/08 07:20:03;;;;;;;;;;;18.10;92.60;;;;;;5072292;28;19908;-91
2022/10/08 07:22:32;;;;;;;;;;;18.00;92.60;;;;;;5089488;28;20163;-91
2022/10/08 07:25:00;;;;;;;;;;;18.00;92.50;;;;;;5072764;28;20025;-92
2022/10/08 07:27:25;;;;;;;;;;;18.10;92.60;;;;;;5073819;28;19908;-91
2022/10/08 07:29:51;;;;;;;;;;;18.10;92.60;;;;;;5072452;28;19915;-91
2022/10/08 07:32:19;;;;;;;;;;;18.10;92.60;;;;;;5071059;28;19908;-90
2022/10/08 07:34:48;;;;;;;;;;;18.10;92.50;;;;;;5071861;28;20057;-91
2022/10/08 07:37:17;;;;;;;;;;;18.10;92.50;;;;;;5086425;28;20271;-91
2022/10/08 07:39:43;;;;;;;;;;;18.10;92.50;;;;;;5068672;28;19912;-91
2022/10/08 07:42:11;;;;;;;;;;;18.10;92.50;;;;;;5086937;28;20247;-90
2022/10/08 07:44:38;;;;;;;;;;;18.10;92.40;;;;;;5071180;28;20007;-90
2022/10/08 07:47:08;;;;;;;;;;;18.10;92.40;;;;;;5070169;28;19942;-91
2022/10/08 07:49:33;;;;;;;;;;;18.10;92.50;;;;;;5072552;28;19908;-90
2022/10/08 07:52:02;;;;;;;;;;;18.10;92.50;;;;;;5074223;28;19908;-91
2022/10/08 07:54:28;;;;;;;;;;;18.10;92.50;;;;;;5092516;28;20217;-91
2022/10/08 07:56:56;;;;;;;;;;;18.20;92.60;;;;;;5074845;28;19908;-91
2022/10/08 07:59:25;;;;;;;;;;;18.20;92.60;;;;;;5074007;28;19908;-91
2022/10/08 08:01:54;;;;;;;;;;;18.20;92.60;;;;;;5075934;28;20388;-91
2022/10/08 08:04:19;;;;;;;;;;;18.30;92.50;;;;;;5074257;28;20414;-91
2022/10/08 08:06:47;;;;;;;;;;;18.30;92.50;;;;;;5075562;28;20341;-91
2022/10/08 08:09:13;;;;;;;;;;;18.30;92.60;;;;;;5077536;28;19943;-90
2022/10/08 08:11:42;;;;;;;;;;;18.30;92.70;;;;;;5076809;28;19915;-91
2022/10/08 08:14:07;;;;;;;;;;;18.40;92.80;;;;;;5075493;28;19916;-90
2022/10/08 08:16:33;;;;;;;;;;;18.40;92.70;;;;;;5075963;28;20486;-90
2022/10/08 08:19:02;;;;;;;;;;;18.60;92.50;;;;;;5076115;28;20079;-90
2022/10/08 08:21:35;;;;;;;;;;;18.70;92.10;;;;;;5076314;28;20297;-90
2022/10/08 08:24:11;;;;;;;;;;;18.80;92.10;;;;;;5074451;28;19916;-91
2022/10/08 08:26:37;;;;;;;;;;;18.80;91.80;;;;;;5073730;28;19919;-90
2022/10/08 08:29:07;;;;;;;;;;;18.70;92.00;;;;;;5071981;28;19916;-92
2022/10/08 08:31:36;;;;;;;;;;;18.70;92.10;;;;;;5073473;28;19949;-91
2022/10/08 08:34:05;;;;;;;;;;;18.70;92.30;;;;;;5070871;28;20394;-91
2022/10/08 08:36:32;;;;;;;;;;;18.70;92.50;;;;;;5072444;28;19916;-90
2022/10/08 08:38:59;;;;;;;;;;;18.80;92.30;;;;;;5070645;28;19908;-90
2022/10/08 08:41:33;;;;;;;;;;;18.80;92.20;;;;;;5071948;28;20329;-90
2022/10/08 08:44:00;;;;;;;;;;;18.90;92.20;;;;;;5089765;28;19918;-92
2022/10/08 08:46:29;;;;;;;;;;;19.00;92.20;;;;;;5073033;28;19908;-91
2022/10/08 08:48:57;;;;;;;;;;;19.30;91.40;;;;;;5075514;28;20019;-90
2022/10/08 08:51:24;;;;;;;;;;;19.50;91.00;;;;;;5075068;28;19908;-91
2022/10/08 08:53:52;;;;;;;;;;;19.90;89.00;;;;;;5073548;28;19947;-90
2022/10/08 08:56:23;;;;;;;;;;;19.70;89.40;;;;;;5073696;28;20178;-91
2022/10/08 08:58:57;;;;;;;;;;;19.60;90.00;;;;;;5071717;28;20366;-91
2022/10/08 09:01:29;;;;;;;;;;;19.40;90.40;;;;;;5090959;28;20155;-91
2022/10/08 09:03:57;;;;;;;;;;;19.30;91.00;;;;;;5072511;28;19912;-90
2022/10/08 09:06:29;;;;;;;;;;;19.20;91.40;;;;;;5075113;28;20053;-91
2022/10/08 09:09:10;;;;;;;;;;;19.10;91.60;;;;;;5074556;28;20277;-92
2022/10/08 09:11:38;;;;;;;;;;;19.10;91.80;;;;;;5073523;28;19908;-89
2022/10/08 09:14:13;;;;;;;;;;;19.30;91.40;;;;;;5073770;28;19908;-90
2022/10/08 09:16:42;;;;;;;;;;;19.60;91.10;;;;;;5074139;28;19908;-91
2022/10/08 09:19:11;;;;;;;;;;;20.70;87.40;;;;;;5074477;28;20171;-90
2022/10/08 09:21:36;;;;;;;;;;;21.60;79.40;;;;;;5071540;28;20099;-91
2022/10/08 09:24:02;;;;;;;;;;;22.20;74.60;;;;;;5090097;28;19912;-90
2022/10/08 09:26:32;;;;;;;;;;;22.20;73.10;;;;;;5073383;28;19991;-91
2022/10/08 09:29:02;;;;;;;;;;;21.70;73.90;;;;;;5073247;28;19943;-90
2022/10/08 09:31:40;;;;;;;;;;;21.50;76.10;;;;;;5073755;28;19916;-91
2022/10/08 09:34:32;;;;;;;;;;;21.60;76.00;;;;;;5075564;28;19922;-91
2022/10/08 09:37:12;;;;;;;;;;;21.30;76.70;;;;;;5069877;28;20077;-90
2022/10/08 09:39:38;;;;;;;;;;;21.20;77.10;;;;;;5071369;28;19908;-89
2022/10/08 09:42:09;;;;;;;;;;;22.00;73.90;;;;;;5091381;28;20060;-89
2022/10/08 09:44:48;;;;;;;;;;;22.40;69.40;;;;;;5071919;28;19942;-91
2022/10/08 09:47:15;;;;;;;;;;;22.60;67.60;;;;;;5091376;28;19916;-92
2022/10/08 09:49:48;;;;;;;;;;;22.60;67.10;;;;;;5074246;28;20202;-91
2022/10/08 09:52:19;;;;;;;;;;;22.40;68.10;;;;;;5073299;28;19908;-93
2022/10/08 09:54:51;;;;;;;;;;;22.40;69.50;;;;;;5071921;28;19909;-89
2022/10/08 09:57:19;;;;;;;;;;;22.20;69.80;;;;;;5076584;28;20280;-90
2022/10/08 09:59:58;;;;;;;;;;;22.20;69.90;;;;;;5071000;28;19912;-91
2022/10/08 10:02:29;;;;;;;;;;;22.10;71.10;;;;;;5071889;28;19908;-90
2022/10/08 10:04:57;;;;;;;;;;;22.00;72.50;;;;;;5072872;28;19951;-90
2022/10/08 10:07:23;;;;;;;;;;;21.80;73.70;;;;;;5088946;28;20340;-90
2022/10/08 10:09:51;;;;;;;;;;;21.60;75.30;;;;;;5069534;28;19943;-89
2022/10/08 10:12:25;;;;;;;;;;;21.60;76.70;;;;;;5069292;28;20300;-90
2022/10/08 10:15:21;;;;;;;;;;;21.50;78.60;;;;;;5088490;28;19915;-91
2022/10/08 10:18:07;;;;;;;;;;;21.50;79.50;;;;;;5057300;28;20193;-90
2022/10/08 10:20:42;;;;;;;;;;;21.50;80.20;;;;;;5068968;28;19908;-90
2022/10/08 10:23:29;;;;;;;;;;;21.50;80.00;;;;;;5069321;28;19951;-90
2022/10/08 10:26:16;;;;;;;;;;;21.50;79.70;;;;;;5073030;28;19908;-91
2022/10/08 10:28:49;;;;;;;;;;;21.40;79.70;;;;;;5070705;28;19919;-89
2022/10/08 10:31:22;;;;;;;;;;;21.40;79.70;;;;;;5069201;28;19908;-89
2022/10/08 10:34:03;;;;;;;;;;;21.50;79.90;;;;;;5069896;28;20110;-91
2022/10/08 10:36:39;;;;;;;;;;;21.50;79.70;;;;;;5069506;28;19939;-91
2022/10/08 10:39:11;;;;;;;;;;;21.50;80.30;;;;;;5071808;28;20201;-91
2022/10/08 10:41:57;;;;;;;;;;;21.50;79.10;;;;;;5069963;28;19908;-92
2022/10/08 10:44:28;;;;;;;;;;;21.60;79.20;;;;;;5069357;28;19993;-91
2022/10/08 10:46:59;;;;;;;;;;;21.50;79.50;;;;;;5070608;28;19921;-90
2022/10/08 10:49:32;;;;;;;;;;;21.40;79.90;;;;;;5070668;28;20189;-91
2022/10/08 10:52:10;;;;;;;;;;;21.30;80.90;;;;;;5075725;28;20194;-91
2022/10/08 10:54:45;;;;;;;;;;;21.30;80.50;;;;;;5071910;28;20353;-91
2022/10/08 10:57:40;;;;;;;;;;;21.30;80.80;;;;;;5073631;28;19908;-91
2022/10/08 11:00:12;;;;;;;;;;;21.20;81.10;;;;;;5019958;28;19937;-92
2022/10/08 11:02:43;;;;;;;;;;;21.10;81.60;;;;;;5075633;28;19970;-91
2022/10/08 11:05:19;;;;;;;;;;;21.10;82.10;;;;;;5075664;28;19919;-91
2022/10/08 11:08:15;;;;;;;;;;;21.10;82.50;;;;;;5076881;28;19908;-91
2022/10/08 11:10:59;;;;;;;;;;;21.00;83.20;;;;;;5054771;28;19918;-92
2022/10/08 11:13:35;;;;;;;;;;;21.00;83.60;;;;;;5067683;28;20247;-91
2022/10/08 11:16:23;;;;;;;;;;;20.90;84.00;;;;;;5070044;28;19912;-91
2022/10/08 11:18:53;;;;;;;;;;;20.90;84.60;;;;;;5068299;28;19997;-91
2022/10/08 11:21:43;;;;;;;;;;;20.90;84.90;;;;;;5070137;28;20259;-92
2022/10/08 11:24:29;;;;;;;;;;;20.80;85.00;;;;;;5066394;28;20288;-90
2022/10/08 11:27:04;;;;;;;;;;;20.90;85.20;;;;;;5066695;28;19973;-90
2022/10/08 11:29:48;;;;;;;;;;;20.90;85.30;;;;;;5068447;28;19908;-90
2022/10/08 11:32:16;;;;;;;;;;;20.90;85.40;;;;;;5065934;28;19908;-91
2022/10/08 11:34:50;;;;;;;;;;;20.90;85.30;;;;;;5064021;28;20046;-91
2022/10/08 11:37:46;;;;;;;;;;;20.90;85.20;;;;;;5062256;28;19962;-90
2022/10/08 11:40:14;;;;;;;;;;;20.80;85.40;;;;;;5053471;28;20003;-90
2022/10/08 11:42:43;;;;;;;;;;;20.80;85.60;;;;;;5067142;28;19931;-89
2022/10/08 11:45:30;;;;;;;;;;;20.80;85.70;;;;;;5069521;28;19908;-91
2022/10/08 11:48:00;;;;;;;;;;;20.80;85.80;;;;;;5068818;28;19914;-90
2022/10/08 11:50:33;;;;;;;;;;;20.70;85.90;;;;;;5086195;28;19912;-91
2022/10/08 11:53:14;;;;;;;;;;;20.70;86.30;;;;;;5067519;28;20014;-92
2022/10/08 11:55:56;;;;;;;;;;;20.70;86.70;;;;;;5066495;28;20436;-90
2022/10/08 11:58:27;;;;;;;;;;;20.60;87.00;;;;;;5067249;28;20008;-91
2022/10/08 12:01:05;;;;;;;;;;;20.60;87.10;;;;;;5067606;28;19912;-91
2022/10/08 12:03:35;;;;;;;;;;;20.60;87.20;;;;;;5068066;28;19971;-91
2022/10/08 12:06:21;;;;;;;;;;;20.60;87.40;;;;;;5068930;28;19916;-91
2022/10/08 12:08:55;;;;;;;;;;;20.60;87.40;;;;;;5069471;28;20282;-91
2022/10/08 12:11:39;;;;;;;;;;;20.60;87.00;;;;;;5067564;28;20394;-91
2022/10/08 12:14:14;;;;;;;;;;;20.70;87.10;;;;;;5068843;28;19908;-91
2022/10/08 12:16:59;;;;;;;;;;;20.60;87.10;;;;;;5068890;28;19908;-91
2022/10/08 12:19:40;;;;;;;;;;;20.60;87.30;;;;;;5068278;28;19908;-92
2022/10/08 12:22:09;;;;;;;;;;;20.60;87.30;;;;;;5069806;28;19908;-93
2022/10/08 12:24:38;;;;;;;;;;;20.60;87.70;;;;;;5070750;28;20232;-91
2022/10/08 12:27:15;;;;;;;;;;;20.50;87.40;;;;;;5067956;28;19908;-91
2022/10/08 12:29:59;;;;;;;;;;;20.50;87.60;;;;;;5067109;28;19908;-91
2022/10/08 12:32:30;;;;;;;;;;;20.40;87.70;;;;;;5067870;28;19908;-92
2022/10/08 12:34:56;;;;;;;;;;;20.40;88.00;;;;;;5070691;28;20210;-91
2022/10/08 12:37:21;;;;;;;;;;;20.40;88.10;;;;;;5071401;28;20019;-91
2022/10/08 12:39:50;;;;;;;;;;;20.40;88.30;;;;;;5070753;28;20202;-91
2022/10/08 12:42:34;;;;;;;;;;;20.40;88.30;;;;;;5068486;28;20182;-92
2022/10/08 12:45:15;;;;;;;;;;;20.40;88.30;;;;;;5069174;28;20036;-90
2022/10/08 12:47:59;;;;;;;;;;;20.40;88.30;;;;;;5070641;28;19908;-91
2022/10/08 12:50:47;;;;;;;;;;;20.40;88.20;;;;;;5070381;28;20281;-91
2022/10/08 12:53:19;;;;;;;;;;;20.40;88.20;;;;;;5071059;28;20006;-89
2022/10/08 12:55:47;;;;;;;;;;;20.30;88.30;;;;;;5069720;28;20183;-93
2022/10/08 12:58:24;;;;;;;;;;;20.40;88.40;;;;;;5071545;28;19912;-92
2022/10/08 13:00:58;;;;;;;;;;;20.40;88.30;;;;;;5086464;28;19908;-92
2022/10/08 13:03:24;;;;;;;;;;;20.40;88.20;;;;;;5088172;28;19969;-91
2022/10/08 13:05:59;;;;;;;;;;;20.40;87.90;;;;;;5071722;28;19916;-93
2022/10/08 13:08:30;;;;;;;;;;;20.40;88.00;;;;;;5076030;28;20160;-92
2022/10/08 13:11:01;;;;;;;;;;;20.40;87.70;;;;;;5075817;28;20007;-93
2022/10/08 13:13:34;;;;;;;;;;;20.40;87.90;;;;;;5072132;28;20339;-92
2022/10/08 13:16:02;;;;;;;;;;;20.30;88.00;;;;;;5069779;28;20239;-92
2022/10/08 13:18:28;;;;;;;;;;;20.30;88.10;;;;;;5070572;28;20052;-92
2022/10/08 13:20:56;;;;;;;;;;;20.30;88.20;;;;;;5069914;28;19908;-93
2022/10/08 13:23:40;;;;;;;;;;;20.40;88.10;;;;;;5071678;28;19919;-91
2022/10/08 13:26:28;;;;;;;;;;;20.30;88.00;;;;;;5070907;28;19912;-92
2022/10/08 13:29:13;;;;;;;;;;;20.40;88.20;;;;;;5071667;28;19991;-92
2022/10/08 13:31:42;;;;;;;;;;;20.40;87.90;;;;;;5074245;28;19908;-92
2022/10/08 13:34:14;;;;;;;;;;;20.40;87.70;;;;;;5072460;28;19908;-93
2022/10/08 13:36:48;;;;;;;;;;;20.40;87.50;;;;;;5071731;28;19900;-91
2022/10/08 13:39:22;;;;;;;;;;;20.40;87.30;;;;;;5079717;28;20029;-92
2022/10/08 13:41:51;;;;;;;;;;;20.40;87.20;;;;;;5082474;28;19992;-92
2022/10/08 13:44:17;;;;;;;;;;;20.40;87.10;;;;;;5074906;28;20275;-92
2022/10/08 13:46:42;;;;;;;;;;;20.40;87.10;;;;;;5074416;28;19916;-93
2022/10/08 13:49:19;;;;;;;;;;;20.40;87.80;;;;;;5077835;28;19975;-92
2022/10/08 13:51:44;;;;;;;;;;;20.40;87.50;;;;;;5075092;28;19908;-92
2022/10/08 13:54:11;;;;;;;;;;;20.40;87.40;;;;;;5077012;28;19915;-93
2022/10/08 13:56:36;;;;;;;;;;;20.30;87.40;;;;;;5082225;28;19918;-92
2022/10/08 13:59:05;;;;;;;;;;;20.30;87.40;;;;;;5076439;28;19909;-93
2022/10/08 14:01:31;;;;;;;;;;;20.30;87.60;;;;;;5071868;28;20130;-91
2022/10/08 14:03:56;;;;;;;;;;;20.20;87.50;;;;;;5068264;28;19971;-92
2022/10/08 14:06:22;;;;;;;;;;;20.20;87.70;;;;;;5070979;28;19915;-92
2022/10/08 14:08:51;;;;;;;;;;;20.20;87.90;;;;;;5069365;28;19912;-92
2022/10/08 14:11:19;;;;;;;;;;;20.10;88.00;;;;;;5068276;28;20023;-92
2022/10/08 14:13:45;;;;;;;;;;;20.10;88.20;;;;;;5068996;28;19916;-91
2022/10/08 14:16:11;;;;;;;;;;;20.10;88.40;;;;;;5074858;28;19908;-93
2022/10/08 14:18:37;;;;;;;;;;;20.10;88.50;;;;;;5074243;28;19908;-92
2022/10/08 14:21:03;;;;;;;;;;;20.10;88.70;;;;;;5072447;28;19909;-92
2022/10/08 14:23:31;;;;;;;;;;;20.10;88.70;;;;;;5070599;28;19927;-92
2022/10/08 14:25:57;;;;;;;;;;;20.10;88.70;;;;;;5069025;28;20253;-94
2022/10/08 14:28:23;;;;;;;;;;;20.10;88.70;;;;;;5080490;28;19916;-92
2022/10/08 14:30:48;;;;;;;;;;;20.10;88.80;;;;;;5071121;28;19908;-93
2022/10/08 14:33:14;;;;;;;;;;;20.10;89.00;;;;;;5068806;28;19907;-92
2022/10/08 14:35:43;;;;;;;;;;;20.10;89.00;;;;;;5067084;28;19916;-90
2022/10/08 14:38:11;;;;;;;;;;;20.10;89.20;;;;;;5072874;28;19994;-93
2022/10/08 14:40:40;;;;;;;;;;;20.10;89.20;;;;;;5070002;28;19908;-92